Time;durP1;ratioP1;P1;durP2;ratioP2;P2;SDS_P1;SDS_P2;PMS_P1;PMS_P2;Temp;Humidity;BMP_temperature;BMP_pressure;BME280_temperature;BME280_humidity;BME280_pressure;Samples;Min_cycle;Max_cycle;Signal;HPM_P1;HPM_P2
2022/10/30 00:00:43;;;;;;;6.53;4.87;;;19.40;99.90;;;;;;5013637;28;20453;-83
2022/10/30 00:03:13;;;;;;;5.40;5.00;;;19.10;99.90;;;;;;5009788;28;20458;-83
2022/10/30 00:05:43;;;;;;;5.50;5.00;;;19.20;99.90;;;;;;5009199;28;20459;-82
2022/10/30 00:08:12;;;;;;;7.10;5.27;;;19.00;99.90;;;;;;5010203;28;21067;-82
2022/10/30 00:10:41;;;;;;;6.53;5.03;;;18.80;99.90;;;;;;5010870;28;20587;-84
2022/10/30 00:13:09;;;;;;;10.70;5.17;;;18.90;99.90;;;;;;5012333;28;20457;-83
2022/10/30 00:15:38;;;;;;;9.27;5.20;;;19.10;99.90;;;;;;5010460;28;20479;-83
2022/10/30 00:18:07;;;;;;;6.37;4.40;;;19.20;99.90;;;;;;5012234;28;21026;-85
2022/10/30 00:20:36;;;;;;;5.00;4.53;;;19.30;99.90;;;;;;5014303;28;20458;-83
2022/10/30 00:23:05;;;;;;;6.10;4.93;;;19.40;99.90;;;;;;5017607;28;20495;-85
2022/10/30 00:25:35;;;;;;;11.67;4.97;;;19.50;99.90;;;;;;5011497;28;21139;-85
2022/10/30 00:28:04;;;;;;;6.47;4.70;;;19.40;99.90;;;;;;5013997;28;20560;-85
2022/10/30 00:30:33;;;;;;;8.07;4.27;;;19.60;99.90;;;;;;5010323;28;20577;-86
2022/10/30 00:33:01;;;;;;;9.83;4.70;;;19.60;99.90;;;;;;5011283;28;20456;-86
2022/10/30 00:35:30;;;;;;;8.57;5.17;;;19.50;99.90;;;;;;5008099;28;21029;-84
2022/10/30 00:38:00;;;;;;;7.83;4.77;;;19.50;99.90;;;;;;5016782;28;20531;-84
2022/10/30 00:40:29;;;;;;;8.70;4.47;;;19.50;99.90;;;;;;5014008;28;21003;-84
2022/10/30 00:42:57;;;;;;;6.03;4.73;;;19.50;99.90;;;;;;5017397;28;20475;-85
2022/10/30 00:45:25;;;;;;;5.70;4.80;;;19.50;99.90;;;;;;5013073;28;20454;-84
2022/10/30 00:47:57;;;;;;;9.40;4.47;;;19.50;99.90;;;;;;5014325;28;20549;-84
2022/10/30 00:50:30;;;;;;;7.57;4.30;;;19.50;99.90;;;;;;5012814;28;20499;-83
2022/10/30 00:53:03;;;;;;;5.97;4.20;;;19.60;99.90;;;;;;5018777;28;20504;-84
2022/10/30 00:55:34;;;;;;;8.73;4.43;;;19.40;99.90;;;;;;5013994;28;20500;-85
2022/10/30 00:58:06;;;;;;;5.30;4.73;;;19.40;99.90;;;;;;5016320;28;20483;-84
2022/10/30 01:00:36;;;;;;;5.00;4.20;;;19.30;99.90;;;;;;5014549;28;20465;-85
2022/10/30 01:03:06;;;;;;;7.83;5.17;;;19.10;99.90;;;;;;5013705;28;20883;-85
2022/10/30 01:05:35;;;;;;;8.17;4.27;;;19.10;99.90;;;;;;5009927;28;20539;-84
2022/10/30 01:08:05;;;;;;;5.67;4.47;;;18.90;99.90;;;;;;5015271;28;20506;-84
2022/10/30 01:10:33;;;;;;;5.93;4.83;;;18.70;99.90;;;;;;5015441;28;20465;-85
2022/10/30 01:13:02;;;;;;;6.33;4.93;;;18.80;99.90;;;;;;5015316;28;20449;-85
2022/10/30 01:15:35;;;;;;;5.33;4.80;;;18.70;99.90;;;;;;5014308;28;20449;-84
2022/10/30 01:18:27;;;;;;;7.77;4.90;;;18.70;99.90;;;;;;5017675;28;20469;-84
2022/10/30 01:21:11;;;;;;;6.03;5.20;;;18.60;99.90;;;;;;5009143;28;20462;-85
2022/10/30 01:23:54;;;;;;;5.60;5.10;;;18.40;99.90;;;;;;5006429;28;21723;-84
2022/10/30 01:26:36;;;;;;;6.50;5.40;;;18.20;99.90;;;;;;5014593;28;20457;-84
2022/10/30 01:29:23;;;;;;;5.90;5.30;;;18.00;99.90;;;;;;5014842;28;20830;-84
2022/10/30 01:32:05;;;;;;;7.50;5.93;;;18.00;99.90;;;;;;5012421;28;20456;-84
2022/10/30 01:34:43;;;;;;;10.37;5.43;;;18.00;99.90;;;;;;5013631;28;20452;-84
2022/10/30 01:37:19;;;;;;;7.50;5.60;;;18.00;99.90;;;;;;5013664;28;20475;-83
2022/10/30 01:39:49;;;;;;;6.67;5.70;;;18.10;99.90;;;;;;5013510;28;20447;-84
2022/10/30 01:42:47;;;;;;;8.80;5.87;;;18.10;99.90;;;;;;5011096;28;20468;-85
2022/10/30 01:45:21;;;;;;;8.17;5.37;;;17.90;99.90;;;;;;5012906;28;20514;-83
2022/10/30 01:48:14;;;;;;;7.93;5.30;;;17.90;99.90;;;;;;5010292;28;20575;-84
2022/10/30 01:50:51;;;;;;;8.33;6.13;;;17.80;99.90;;;;;;5013296;28;20544;-83
2022/10/30 01:53:37;;;;;;;10.43;6.40;;;18.00;99.90;;;;;;5015412;28;20464;-84
2022/10/30 01:56:17;;;;;;;6.93;5.47;;;17.70;99.90;;;;;;5011801;28;20569;-84
2022/10/30 01:58:53;;;;;;;7.00;5.87;;;17.80;99.90;;;;;;5018968;28;20469;-84
2022/10/30 02:01:22;;;;;;;7.10;5.73;;;17.90;99.90;;;;;;5012363;28;20452;-85
2022/10/30 02:03:59;;;;;;;7.20;6.50;;;17.50;99.90;;;;;;5017244;28;20461;-84
2022/10/30 02:06:28;;;;;;;8.13;5.80;;;17.50;99.90;;;;;;5016747;28;20500;-84
2022/10/30 02:08:56;;;;;;;11.10;6.30;;;17.40;99.90;;;;;;5015788;28;20467;-84
2022/10/30 02:11:27;;;;;;;6.80;5.87;;;17.50;99.90;;;;;;5012261;28;20530;-84
2022/10/30 02:13:57;;;;;;;10.83;6.27;;;17.30;99.90;;;;;;5020681;28;20497;-84
2022/10/30 02:16:25;;;;;;;10.20;6.30;;;17.40;99.90;;;;;;5009406;28;20447;-83
2022/10/30 02:18:53;;;;;;;9.93;6.23;;;17.60;99.90;;;;;;5012791;28;20508;-84
2022/10/30 02:21:23;;;;;;;7.37;6.23;;;17.40;99.90;;;;;;5017069;28;20476;-84
2022/10/30 02:23:51;;;;;;;8.20;6.47;;;17.40;99.90;;;;;;5016060;28;20448;-83
2022/10/30 02:26:19;;;;;;;6.23;5.73;;;17.40;99.90;;;;;;5010877;28;20851;-83
2022/10/30 02:28:47;;;;;;;5.97;5.47;;;17.10;99.90;;;;;;5011772;28;20483;-85
2022/10/30 02:31:15;;;;;;;8.27;5.93;;;17.40;99.90;;;;;;5011749;28;20485;-84
2022/10/30 02:33:45;;;;;;;6.30;5.17;;;17.60;99.90;;;;;;5013977;28;20457;-86
2022/10/30 02:36:15;;;;;;;6.77;5.33;;;17.50;99.90;;;;;;5016918;28;20876;-84
2022/10/30 02:38:44;;;;;;;10.37;6.60;;;17.20;99.90;;;;;;5012976;28;22240;-85
2022/10/30 02:41:13;;;;;;;6.30;5.53;;;16.90;99.90;;;;;;5019947;28;20448;-85
2022/10/30 02:43:41;;;;;;;9.90;6.37;;;17.00;99.90;;;;;;5014402;28;20448;-84
2022/10/30 02:46:09;;;;;;;6.40;5.90;;;17.10;99.90;;;;;;5015719;28;20452;-85
2022/10/30 02:48:37;;;;;;;8.60;6.10;;;17.00;99.90;;;;;;5021948;28;20480;-83
2022/10/30 02:51:06;;;;;;;5.93;5.40;;;17.00;99.90;;;;;;5018368;28;20476;-84
2022/10/30 02:53:34;;;;;;;7.20;5.30;;;16.90;99.90;;;;;;5020193;28;20511;-83
2022/10/30 02:56:09;;;;;;;6.53;5.90;;;17.00;99.90;;;;;;5016499;28;20459;-84
2022/10/30 02:58:37;;;;;;;12.83;6.47;;;17.10;99.90;;;;;;5017239;28;20483;-83
2022/10/30 03:01:06;;;;;;;7.80;5.90;;;17.10;99.90;;;;;;5020374;28;20463;-83
2022/10/30 03:03:35;;;;;;;9.27;5.73;;;17.00;99.90;;;;;;5017518;28;20461;-84
2022/10/30 03:06:06;;;;;;;7.27;6.00;;;17.00;99.90;;;;;;5017633;28;20528;-84
2022/10/30 03:08:35;;;;;;;9.13;6.30;;;16.90;99.90;;;;;;5012912;28;20479;-84
2022/10/30 03:11:05;;;;;;;7.10;6.40;;;16.80;1.00;;;;;;5014143;28;20869;-87
2022/10/30 03:13:35;;;;;;;7.20;5.27;;;16.90;1.00;;;;;;5015449;28;20464;-85
2022/10/30 03:16:06;;;;;;;10.00;6.67;;;16.70;1.00;;;;;;5015053;28;20457;-84
2022/10/30 03:18:34;;;;;;;7.30;5.50;;;16.60;1.00;;;;;;5011035;28;20485;-83
2022/10/30 03:21:05;;;;;;;6.27;5.67;;;16.80;1.00;;;;;;5008439;28;20488;-85
2022/10/30 03:23:34;;;;;;;6.57;5.97;;;16.90;1.00;;;;;;5013234;28;20448;-85
2022/10/30 03:26:03;;;;;;;7.37;5.70;;;17.10;1.00;;;;;;5011097;28;20495;-84
2022/10/30 03:28:32;;;;;;;7.77;5.87;;;16.90;1.00;;;;;;5013004;28;20630;-85
2022/10/30 03:31:03;;;;;;;10.73;7.90;;;16.70;1.00;;;;;;5016119;28;20630;-85
2022/10/30 03:33:32;;;;;;;6.77;6.10;;;16.50;1.00;;;;;;5015403;28;20460;-84
2022/10/30 03:36:01;;;;;;;12.37;6.80;;;16.80;1.00;;;;;;5016842;28;20461;-84
2022/10/30 03:38:29;;;;;;;7.30;6.07;;;16.60;1.00;;;;;;5012689;28;20489;-84
2022/10/30 03:40:57;;;;;;;7.47;6.00;;;16.50;1.00;;;;;;5013240;28;20466;-85
2022/10/30 03:43:26;;;;;;;8.00;5.60;;;16.60;1.00;;;;;;5013872;28;20505;-83
2022/10/30 03:45:56;;;;;;;10.00;6.77;;;16.50;1.00;;;;;;5012590;28;20464;-83
2022/10/30 03:48:27;;;;;;;6.90;6.30;;;16.40;1.00;;;;;;5015357;28;21071;-83
2022/10/30 03:50:56;;;;;;;10.33;6.73;;;16.50;1.00;;;;;;5015108;28;20477;-83
2022/10/30 03:53:25;;;;;;;7.30;6.67;;;16.50;1.00;;;;;;5013766;28;20462;-83
2022/10/30 03:55:58;;;;;;;14.03;7.40;;;16.30;1.00;;;;;;5017161;28;20481;-84
2022/10/30 03:58:27;;;;;;;9.57;7.07;;;16.40;1.00;;;;;;5016031;28;20480;-84
2022/10/30 04:01:00;;;;;;;7.57;6.33;;;16.40;1.00;;;;;;5014741;28;21104;-83
2022/10/30 04:03:30;;;;;;;7.20;6.50;;;16.40;1.00;;;;;;5007921;28;21240;-84
2022/10/30 04:05:58;;;;;;;11.23;6.80;;;16.40;1.00;;;;;;5015299;28;22396;-83
2022/10/30 04:08:27;;;;;;;6.90;6.20;;;16.50;1.00;;;;;;5015027;28;20533;-84
2022/10/30 04:10:55;;;;;;;7.90;5.80;;;16.30;1.00;;;;;;5021358;28;20517;-83
2022/10/30 04:13:23;;;;;;;12.87;6.37;;;16.20;1.00;;;;;;5017466;28;20549;-85
2022/10/30 04:15:51;;;;;;;6.97;6.10;;;16.10;1.00;;;;;;5013888;28;20515;-82
2022/10/30 04:18:25;;;;;;;8.73;6.70;;;16.30;1.00;;;;;;5014930;28;20472;-84
2022/10/30 04:20:55;;;;;;;6.70;6.07;;;16.30;1.00;;;;;;5015459;28;20462;-85
2022/10/30 04:23:23;;;;;;;6.90;6.23;;;16.20;1.00;;;;;;5006992;28;20447;-84
2022/10/30 04:25:51;;;;;;;11.53;6.43;;;16.30;1.00;;;;;;5014317;28;20463;-83
2022/10/30 04:28:20;;;;;;;7.80;6.07;;;16.10;1.00;;;;;;5019321;28;20495;-84
2022/10/30 04:30:48;;;;;;;8.53;6.13;;;15.90;1.00;;;;;;5016046;28;20919;-84
2022/10/30 04:33:17;;;;;;;7.40;6.10;;;16.00;1.00;;;;;;5015199;28;20575;-84
2022/10/30 04:35:45;;;;;;;8.97;6.33;;;15.80;1.00;;;;;;5013234;28;20500;-84
2022/10/30 04:38:17;;;;;;;8.47;6.50;;;15.80;1.00;;;;;;5014674;28;20541;-84
2022/10/30 04:40:46;;;;;;;6.87;5.37;;;16.00;1.00;;;;;;5013593;28;20455;-84
2022/10/30 04:43:14;;;;;;;7.07;5.40;;;16.00;1.00;;;;;;5021779;28;20442;-84
2022/10/30 04:45:42;;;;;;;7.10;6.40;;;16.10;1.00;;;;;;5015550;28;20550;-85
2022/10/30 04:48:12;;;;;;;9.20;5.83;;;15.80;1.00;;;;;;5018837;28;20478;-84
2022/10/30 04:50:41;;;;;;;6.77;6.10;;;15.90;1.00;;;;;;5017233;28;20459;-84
2022/10/30 04:53:14;;;;;;;7.73;6.83;;;15.70;1.00;;;;;;5019031;28;20857;-83
2022/10/30 04:55:43;;;;;;;10.47;6.07;;;15.60;1.00;;;;;;5013840;28;20562;-84
2022/10/30 04:58:12;;;;;;;6.17;5.60;;;16.10;1.00;;;;;;5018258;28;21023;-84
2022/10/30 05:00:40;;;;;;;7.93;5.73;;;15.80;1.00;;;;;;5013246;28;20454;-85
2022/10/30 05:03:16;;;;;;;9.93;5.90;;;15.90;1.00;;;;;;5014245;28;20528;-84
2022/10/30 05:05:44;;;;;;;6.50;5.90;;;15.90;1.00;;;;;;5016564;28;20447;-85
2022/10/30 05:08:14;;;;;;;7.60;5.43;;;15.70;1.00;;;;;;5014211;28;20564;-84
2022/10/30 05:10:42;;;;;;;9.20;6.03;;;15.60;1.00;;;;;;5015996;28;21045;-84
2022/10/30 05:13:11;;;;;;;7.63;5.80;;;15.60;1.00;;;;;;5010503;28;20465;-84
2022/10/30 05:15:39;;;;;;;6.73;6.13;;;15.70;1.00;;;;;;5014215;28;21305;-84
2022/10/30 05:18:07;;;;;;;6.40;5.77;;;15.50;1.00;;;;;;5014183;28;20480;-84
2022/10/30 05:20:36;;;;;;;7.30;6.60;;;15.40;1.00;;;;;;5014925;28;20456;-85
2022/10/30 05:23:04;;;;;;;7.47;5.97;;;15.50;1.00;;;;;;5013530;28;20457;-83
2022/10/30 05:25:34;;;;;;;8.60;5.67;;;15.80;1.00;;;;;;5014293;28;20948;-84
2022/10/30 05:28:06;;;;;;;7.57;6.10;;;15.90;1.00;;;;;;5012616;28;21302;-83
2022/10/30 05:30:35;;;;;;;5.80;5.30;;;15.50;1.00;;;;;;5011031;28;20512;-83
2022/10/30 05:33:05;;;;;;;6.17;5.57;;;15.60;1.00;;;;;;5013674;28;20487;-84
2022/10/30 05:35:34;;;;;;;6.70;5.97;;;15.60;1.00;;;;;;5016114;28;20458;-84
2022/10/30 05:38:05;;;;;;;6.03;5.43;;;15.90;1.00;;;;;;5013739;28;20470;-85
2022/10/30 05:40:35;;;;;;;5.53;5.10;;;15.60;1.00;;;;;;5014304;28;20455;-85
2022/10/30 05:43:04;;;;;;;6.50;5.47;;;15.40;1.00;;;;;;5018042;28;20515;-84
2022/10/30 05:45:32;;;;;;;7.13;5.80;;;15.50;1.00;;;;;;5008088;28;20508;-83
2022/10/30 05:48:03;;;;;;;6.40;5.70;;;15.60;1.00;;;;;;5012693;28;20480;-84
2022/10/30 05:50:31;;;;;;;7.00;5.30;;;15.30;1.00;;;;;;5011188;28;22183;-85
2022/10/30 05:53:01;;;;;;;5.90;5.40;;;15.40;1.00;;;;;;5010673;28;20485;-85
2022/10/30 05:55:29;;;;;;;8.17;5.30;;;15.20;1.00;;;;;;5014852;28;20461;-85
2022/10/30 05:57:59;;;;;;;7.87;5.83;;;15.40;1.00;;;;;;5015077;28;20537;-84
2022/10/30 06:00:30;;;;;;;5.90;5.40;;;15.30;1.00;;;;;;5012016;28;20461;-85
2022/10/30 06:03:01;;;;;;;7.27;5.73;;;15.30;1.00;;;;;;5016420;28;20753;-83
2022/10/30 06:05:31;;;;;;;8.33;6.10;;;15.20;1.00;;;;;;5022019;28;20459;-84
2022/10/30 06:08:00;;;;;;;6.33;5.70;;;15.50;1.00;;;;;;5019961;28;20507;-84
2022/10/30 06:10:29;;;;;;;5.30;4.80;;;15.30;1.00;;;;;;5018711;28;20500;-85
2022/10/30 06:13:00;;;;;;;5.90;5.10;;;15.30;1.00;;;;;;5023163;28;20480;-84
2022/10/30 06:15:30;;;;;;;6.00;5.33;;;15.30;1.00;;;;;;5015480;28;20468;-85
2022/10/30 06:17:58;;;;;;;7.60;5.57;;;15.30;1.00;;;;;;5017555;28;20488;-85
2022/10/30 06:20:28;;;;;;;6.53;5.43;;;15.30;1.00;;;;;;5011814;28;20955;-84
2022/10/30 06:22:58;;;;;;;7.90;5.03;;;15.30;1.00;;;;;;5013770;28;20453;-84
2022/10/30 06:25:27;;;;;;;7.07;5.50;;;15.10;1.00;;;;;;5010316;28;20452;-84
2022/10/30 06:27:55;;;;;;;5.43;4.90;;;15.30;1.00;;;;;;5012830;28;21196;-84
2022/10/30 06:30:26;;;;;;;6.50;5.67;;;15.40;1.00;;;;;;5012021;28;20458;-83
2022/10/30 06:32:57;;;;;;;8.83;5.20;;;15.10;1.00;;;;;;5011832;28;22670;-81
2022/10/30 06:35:25;;;;;;;7.87;5.87;;;15.40;1.00;;;;;;5024310;28;20455;-82
2022/10/30 06:37:55;;;;;;;8.83;6.57;;;15.40;1.00;;;;;;5025074;28;20503;-81
2022/10/30 06:40:23;;;;;;;8.80;5.50;;;15.40;1.00;;;;;;5017466;28;20450;-81
2022/10/30 06:42:53;;;;;;;8.43;5.73;;;15.10;1.00;;;;;;5018779;28;20809;-82
2022/10/30 06:45:23;;;;;;;6.73;5.30;;;15.50;1.00;;;;;;5010668;28;21161;-82
2022/10/30 06:47:53;;;;;;;6.63;5.23;;;15.40;1.00;;;;;;5013883;28;20480;-83
2022/10/30 06:50:23;;;;;;;8.10;5.30;;;15.50;1.00;;;;;;5002052;28;20475;-83
2022/10/30 06:52:51;;;;;;;5.90;4.77;;;15.40;1.00;;;;;;5013712;28;20470;-82
2022/10/30 06:55:19;;;;;;;6.10;5.50;;;15.20;1.00;;;;;;5017371;28;20560;-82
2022/10/30 06:57:53;;;;;;;5.70;5.20;;;15.60;1.00;;;;;;5018913;28;21539;-83
2022/10/30 07:00:21;;;;;;;7.97;5.87;;;15.50;1.00;;;;;;5011847;28;21788;-83
2022/10/30 07:03:03;;;;;;;13.80;10.90;;;15.30;1.00;;;;;;5011148;28;20527;-83
2022/10/30 07:05:31;;;;;;;10.80;6.37;;;15.70;1.00;;;;;;5014085;28;20557;-83
2022/10/30 07:07:59;;;;;;;5.40;4.93;;;15.90;1.00;;;;;;5016662;28;20484;-81
2022/10/30 07:10:27;;;;;;;6.40;5.77;;;15.90;1.00;;;;;;5010994;28;20558;-81
2022/10/30 07:12:57;;;;;;;9.13;5.63;;;15.70;1.00;;;;;;5014937;28;20569;-82
2022/10/30 07:15:26;;;;;;;7.17;5.20;;;15.80;1.00;;;;;;5014491;28;20465;-81
2022/10/30 07:17:56;;;;;;;5.70;5.30;;;15.60;1.00;;;;;;5012487;28;20628;-82
2022/10/30 07:20:28;;;;;;;5.67;5.10;;;15.90;1.00;;;;;;5016774;28;20517;-82
2022/10/30 07:22:56;;;;;;;6.23;5.50;;;16.00;1.00;;;;;;5010650;28;20463;-82
2022/10/30 07:25:24;;;;;;;9.30;5.53;;;15.70;1.00;;;;;;5012127;28;20572;-83
2022/10/30 07:27:54;;;;;;;10.23;4.93;;;15.80;1.00;;;;;;5015947;28;20549;-83
2022/10/30 07:30:23;;;;;;;5.93;5.33;;;15.70;1.00;;;;;;5011800;28;20557;-82
2022/10/30 07:32:58;;;;;;;6.80;6.23;;;15.80;1.00;;;;;;5012479;28;20533;-81
2022/10/30 07:35:28;;;;;;;8.20;6.07;;;15.90;1.00;;;;;;5009019;28;20463;-83
2022/10/30 07:38:01;;;;;;;7.13;6.13;;;16.20;1.00;;;;;;5012944;28;20784;-83
2022/10/30 07:40:30;;;;;;;6.87;6.00;;;16.40;1.00;;;;;;5015802;28;20451;-83
2022/10/30 07:42:58;;;;;;;7.47;6.40;;;16.40;1.00;;;;;;5019517;28;20487;-84
2022/10/30 07:45:27;;;;;;;6.40;5.70;;;16.30;1.00;;;;;;5019991;28;20537;-82
2022/10/30 07:47:56;;;;;;;8.63;6.93;;;16.80;1.00;;;;;;5018397;28;20838;-82
2022/10/30 07:50:25;;;;;;;8.20;5.60;;;17.10;1.00;;;;;;5020686;28;20887;-83
2022/10/30 07:52:54;;;;;;;8.23;6.60;;;17.50;1.00;;;;;;5015503;28;20590;-83
2022/10/30 07:55:22;;;;;;;7.13;5.90;;;17.60;1.00;;;;;;5016599;28;20461;-83
2022/10/30 07:57:50;;;;;;;8.40;6.77;;;17.70;1.00;;;;;;5018961;28;20473;-83
2022/10/30 08:00:19;;;;;;;6.90;6.23;;;18.30;1.00;;;;;;5015081;28;20520;-84
2022/10/30 08:02:50;;;;;;;7.60;5.97;;;18.70;1.00;;;;;;5021765;28;20529;-83
2022/10/30 08:05:18;;;;;;;11.30;5.63;;;19.10;99.90;;;;;;5015358;28;20522;-83
2022/10/30 08:07:47;;;;;;;9.70;6.50;;;19.40;99.90;;;;;;5014008;28;21025;-83
2022/10/30 08:10:17;;;;;;;7.57;6.67;;;19.70;99.90;;;;;;5016273;28;20460;-83
2022/10/30 08:12:47;;;;;;;9.10;5.90;;;19.90;99.90;;;;;;5018033;28;20547;-83
2022/10/30 08:15:15;;;;;;;6.60;5.93;;;20.30;99.90;;;;;;5015808;28;20499;-83
2022/10/30 08:17:44;;;;;;;9.00;6.30;;;20.50;99.90;;;;;;5016238;28;20492;-83
2022/10/30 08:20:14;;;;;;;9.53;6.10;;;21.00;99.90;;;;;;5013533;28;20493;-84
2022/10/30 08:22:47;;;;;;;7.10;5.80;;;21.60;99.90;;;;;;5011907;28;20890;-84
2022/10/30 08:25:18;;;;;;;5.43;5.03;;;22.70;99.90;;;;;;5015266;28;20474;-84
2022/10/30 08:27:53;;;;;;;10.93;6.10;;;23.50;99.90;;;;;;5014111;28;20577;-80
2022/10/30 08:30:22;;;;;;;13.13;6.00;;;23.90;99.90;;;;;;5013389;28;20468;-80
2022/10/30 08:32:50;;;;;;;6.37;5.80;;;23.60;99.90;;;;;;5015739;28;20998;-81
2022/10/30 08:35:19;;;;;;;8.13;6.00;;;23.10;99.90;;;;;;5014912;28;20512;-80
2022/10/30 08:37:47;;;;;;;6.70;6.20;;;22.70;99.90;;;;;;5011373;28;20493;-84
2022/10/30 08:40:17;;;;;;;6.70;5.50;;;22.20;99.90;;;;;;5004558;28;20974;-83
2022/10/30 08:42:50;;;;;;;6.07;5.57;;;21.90;99.90;;;;;;5009248;28;20469;-84
2022/10/30 08:45:19;;;;;;;6.20;5.80;;;21.70;99.90;;;;;;5016146;28;20498;-84
2022/10/30 08:47:47;;;;;;;6.30;5.70;;;21.60;99.90;;;;;;5019955;28;20535;-84
2022/10/30 08:50:16;;;;;;;8.90;6.00;;;21.60;99.90;;;;;;5015284;28;20461;-84
2022/10/30 08:52:44;;;;;;;5.80;5.37;;;21.60;99.90;;;;;;5013252;28;20528;-84
2022/10/30 08:55:19;;;;;;;8.80;5.53;;;21.50;99.90;;;;;;5016929;28;20494;-84
2022/10/30 08:57:48;;;;;;;8.70;5.70;;;21.30;99.90;;;;;;5014558;28;20480;-84
2022/10/30 09:00:16;;;;;;;11.47;5.30;;;21.40;99.90;;;;;;5014221;28;20457;-83
2022/10/30 09:02:45;;;;;;;8.00;5.97;;;21.40;99.90;;;;;;5017095;28;20970;-83
2022/10/30 09:05:13;;;;;;;6.47;5.60;;;22.20;99.90;;;;;;5018072;28;21155;-83
2022/10/30 09:07:41;;;;;;;7.33;5.30;;;23.50;99.90;;;;;;5013524;28;20481;-84
2022/10/30 09:10:10;;;;;;;7.80;5.83;;;24.80;99.90;;;;;;5013447;28;20464;-84
2022/10/30 09:12:39;;;;;;;7.23;5.20;;;26.10;99.90;;;;;;5014643;28;20998;-85
2022/10/30 09:15:08;;;;;;;5.33;4.93;;;26.50;99.90;;;;;;5017138;28;20480;-83
2022/10/30 09:17:36;;;;;;;9.33;4.83;;;27.30;99.90;;;;;;5010372;28;20531;-82
2022/10/30 09:20:05;;;;;;;5.50;5.00;;;27.50;99.90;;;;;;5017706;28;21493;-83
2022/10/30 09:22:33;;;;;;;7.30;4.93;;;27.20;99.90;;;;;;5017291;28;20454;-83
2022/10/30 09:25:02;;;;;;;9.17;4.77;;;27.00;99.90;;;;;;5018557;28;20473;-82
2022/10/30 09:27:30;;;;;;;6.07;4.87;;;27.30;99.90;;;;;;5015763;28;21301;-82
2022/10/30 09:29:59;;;;;;;9.13;5.63;;;27.30;99.90;;;;;;5013497;28;20534;-81
2022/10/30 09:32:27;;;;;;;5.90;4.70;;;27.20;99.90;;;;;;5012238;28;20469;-82
2022/10/30 09:34:55;;;;;;;6.53;4.20;;;27.50;99.90;;;;;;5016248;28;20489;-82
2022/10/30 09:37:25;;;;;;;10.83;4.20;;;28.00;99.90;;;;;;5019642;28;20493;-82
2022/10/30 09:39:53;;;;;;;5.60;4.80;;;28.70;99.90;;;;;;5012256;28;20514;-83
2022/10/30 09:42:50;;;;;;;6.70;4.70;;;29.30;99.90;;;;;;5011372;28;20543;-82
2022/10/30 09:45:47;;;;;;;4.77;4.37;;;29.80;99.90;;;;;;4995449;28;20473;-81
2022/10/30 09:48:39;;;;;;;8.97;5.47;;;30.30;99.90;;;;;;5014187;28;20473;-82
2022/10/30 09:51:21;;;;;;;6.30;4.17;;;31.20;99.90;;;;;;5012049;28;20459;-82
2022/10/30 09:54:01;;;;;;;4.40;3.70;;;31.60;99.90;;;;;;5013230;28;20549;-84
2022/10/30 09:56:34;;;;;;;9.53;4.80;;;32.20;99.90;;;;;;5015408;28;20511;-82
2022/10/30 09:59:10;;;;;;;5.27;4.80;;;33.20;99.90;;;;;;5016033;28;20442;-82
2022/10/30 10:01:46;;;;;;;4.53;4.20;;;33.20;99.90;;;;;;5014035;28;20575;-82
2022/10/30 10:04:23;;;;;;;7.27;4.53;;;35.00;99.90;;;;;;5018407;28;20507;-81
2022/10/30 10:07:00;;;;;;;5.40;4.27;;;36.80;99.90;;;;;;5020925;28;20483;-82
2022/10/30 10:09:31;;;;;;;6.73;3.80;;;37.70;99.90;;;;;;5020888;28;20955;-82
2022/10/30 10:12:05;;;;;;;4.70;4.10;;;37.60;99.90;;;;;;5018972;28;20536;-82
2022/10/30 10:14:37;;;;;;;4.43;4.03;;;38.40;99.90;;;;;;5017716;28;20484;-82
2022/10/30 10:17:12;;;;;;;6.30;4.37;;;38.70;99.90;;;;;;5012697;28;20480;-84
2022/10/30 10:19:47;;;;;;;11.27;4.57;;;38.40;99.90;;;;;;5016289;28;20444;-84
2022/10/30 10:22:21;;;;;;;6.67;4.70;;;37.80;99.90;;;;;;5013918;28;20502;-82
2022/10/30 10:24:49;;;;;;;5.73;4.27;;;37.60;99.90;;;;;;5018926;28;20460;-83
2022/10/30 10:27:26;;;;;;;7.30;4.17;;;38.00;99.90;;;;;;5014588;28;20483;-81
2022/10/30 10:30:01;;;;;;;4.27;3.87;;;39.50;99.90;;;;;;5019774;28;21024;-82
2022/10/30 10:32:59;;;;;;;4.80;3.60;;;40.10;99.90;;;;;;5019394;28;20506;-83
2022/10/30 10:35:44;;;;;;;6.97;4.10;;;40.60;99.90;;;;;;5017640;28;20480;-83
2022/10/30 10:38:21;;;;;;;4.80;3.70;;;39.50;99.90;;;;;;5017967;28;20590;-83
2022/10/30 10:41:00;;;;;;;5.50;3.87;;;37.70;99.90;;;;;;5022011;28;20579;-82
2022/10/30 10:43:43;;;;;;;4.57;3.60;;;36.40;99.90;;;;;;5022296;28;20460;-83
2022/10/30 10:46:26;;;;;;;4.60;3.30;;;36.30;99.90;;;;;;5017368;28;20528;-84
2022/10/30 10:49:12;;;;;;;3.70;3.40;;;35.20;99.90;;;;;;5015562;28;20533;-82
2022/10/30 10:51:43;;;;;;;5.67;3.10;;;35.70;99.90;;;;;;5017796;28;20518;-81
2022/10/30 10:54:16;;;;;;;6.53;3.63;;;36.50;99.90;;;;;;5021153;28;20467;-85
2022/10/30 10:56:49;;;;;;;3.13;2.73;;;36.30;99.90;;;;;;5016011;28;20564;-83
2022/10/30 10:59:20;;;;;;;3.00;2.50;;;36.60;99.90;;;;;;5020892;28;20456;-82
2022/10/30 11:01:56;;;;;;;3.27;2.97;;;37.30;99.90;;;;;;5020898;28;20469;-82
2022/10/30 11:04:32;;;;;;;4.87;2.97;;;38.50;99.90;;;;;;5022751;28;20464;-83
2022/10/30 11:07:12;;;;;;;3.33;3.00;;;39.10;99.90;;;;;;5024771;28;20511;-81
2022/10/30 11:09:42;;;;;;;6.93;2.93;;;38.20;99.90;;;;;;5016272;28;20457;-80
2022/10/30 11:12:10;;;;;;;4.60;4.17;;;35.80;99.90;;;;;;5025114;28;20464;-79
2022/10/30 11:14:39;;;;;;;5.50;3.87;;;33.60;99.90;;;;;;5026141;28;20472;-80
2022/10/30 11:17:15;;;;;;;5.77;3.40;;;32.30;99.90;;;;;;5020327;28;20489;-79
2022/10/30 11:19:47;;;;;;;11.93;4.53;;;31.30;99.90;;;;;;5020319;28;21040;-78
2022/10/30 11:22:25;;;;;;;9.43;4.00;;;30.70;99.90;;;;;;5014114;28;20464;-80
2022/10/30 11:24:53;;;;;;;3.93;3.63;;;30.20;99.90;;;;;;5015786;28;20555;-80
2022/10/30 11:27:27;;;;;;;3.70;3.10;;;29.80;99.90;;;;;;5014315;28;20519;-80
2022/10/30 11:29:59;;;;;;;4.13;3.03;;;29.60;99.90;;;;;;5016859;28;20463;-80
2022/10/30 11:32:29;;;;;;;5.07;3.60;;;29.30;99.90;;;;;;5017033;28;20457;-79
2022/10/30 11:35:08;;;;;;;4.37;3.50;;;29.20;99.90;;;;;;5016570;28;20555;-80
2022/10/30 11:37:38;;;;;;;3.17;2.87;;;28.90;99.90;;;;;;5016373;28;20579;-81
2022/10/30 11:40:16;;;;;;;3.40;3.00;;;29.00;99.90;;;;;;5019382;28;20500;-80
2022/10/30 11:42:48;;;;;;;4.77;3.10;;;28.90;99.90;;;;;;5016596;28;20907;-80
2022/10/30 11:45:18;;;;;;;2.93;2.60;;;28.70;99.90;;;;;;5015725;28;20461;-81
2022/10/30 11:47:47;;;;;;;3.13;2.90;;;28.40;99.90;;;;;;5013771;28;20492;-81
2022/10/30 11:50:20;;;;;;;2.83;2.63;;;28.20;99.90;;;;;;5015468;28;20453;-83
2022/10/30 11:52:50;;;;;;;5.37;2.97;;;27.90;99.90;;;;;;5015911;28;20499;-79
2022/10/30 11:55:22;;;;;;;2.87;2.67;;;28.00;99.90;;;;;;5018114;28;21061;-82
2022/10/30 11:57:54;;;;;;;3.43;3.13;;;27.90;99.90;;;;;;5016392;28;20937;-82
2022/10/30 12:00:25;;;;;;;6.43;3.40;;;27.80;99.90;;;;;;5015812;28;20461;-81
2022/10/30 12:02:55;;;;;;;4.57;3.93;;;27.80;99.90;;;;;;5015220;28;20511;-82
2022/10/30 12:05:37;;;;;;;5.30;3.10;;;27.60;99.90;;;;;;5011332;28;20457;-81
2022/10/30 12:08:18;;;;;;;5.47;2.40;;;27.50;99.90;;;;;;5008966;28;20492;-82
2022/10/30 12:10:56;;;;;;;6.20;2.73;;;27.60;99.90;;;;;;5008294;28;20457;-80
2022/10/30 12:13:25;;;;;;;3.00;2.80;;;27.60;99.90;;;;;;5013137;28;21640;-82
2022/10/30 12:16:07;;;;;;;2.70;2.37;;;27.50;99.90;;;;;;5016261;28;20509;-82
2022/10/30 12:18:36;;;;;;;4.23;2.43;;;27.60;99.90;;;;;;5014275;28;20571;-81
2022/10/30 12:21:06;;;;;;;2.80;2.57;;;27.60;99.90;;;;;;5009500;28;20556;-81
2022/10/30 12:23:35;;;;;;;2.80;2.20;;;27.50;99.90;;;;;;5008101;28;20541;-80
2022/10/30 12:26:15;;;;;;;2.93;2.60;;;27.50;99.90;;;;;;5009373;28;20460;-81
2022/10/30 12:28:53;;;;;;;2.57;2.37;;;27.50;99.90;;;;;;5013857;28;20575;-81
2022/10/30 12:31:25;;;;;;;4.20;2.37;;;27.30;99.90;;;;;;5018028;28;20492;-80
2022/10/30 12:34:06;;;;;;;3.40;2.70;;;27.30;99.90;;;;;;5013859;28;20499;-81
2022/10/30 12:36:40;;;;;;;7.27;2.80;;;27.20;99.90;;;;;;5013001;28;20480;-80
2022/10/30 12:39:14;;;;;;;2.57;2.20;;;27.20;99.90;;;;;;5009705;28;20519;-80
2022/10/30 12:41:46;;;;;;;2.37;2.27;;;27.10;99.90;;;;;;5016233;28;20960;-81
2022/10/30 12:44:18;;;;;;;2.90;2.30;;;27.10;99.90;;;;;;5005913;28;20461;-82
2022/10/30 12:46:51;;;;;;;3.87;2.60;;;27.10;99.90;;;;;;5010460;28;21250;-81
2022/10/30 12:49:25;;;;;;;6.30;2.27;;;27.10;99.90;;;;;;5011982;28;20519;-81
2022/10/30 12:52:01;;;;;;;4.27;2.00;;;27.10;99.90;;;;;;5012780;28;20592;-81
2022/10/30 12:54:33;;;;;;;2.23;2.13;;;27.10;99.90;;;;;;5009851;28;20510;-81
2022/10/30 12:57:10;;;;;;;4.87;2.07;;;27.10;99.90;;;;;;5012134;28;20476;-82
2022/10/30 12:59:50;;;;;;;3.07;1.97;;;27.00;99.90;;;;;;5012838;28;20625;-81
2022/10/30 13:02:29;;;;;;;2.53;2.00;;;27.00;99.90;;;;;;5006748;28;20559;-80
2022/10/30 13:05:02;;;;;;;2.40;2.20;;;27.00;99.90;;;;;;5014478;28;20487;-81
2022/10/30 13:07:41;;;;;;;2.23;1.80;;;26.90;99.90;;;;;;5016012;28;20519;-81
2022/10/30 13:10:21;;;;;;;2.00;1.90;;;26.70;99.90;;;;;;5015293;28;20507;-82
2022/10/30 13:12:53;;;;;;;3.30;1.93;;;26.90;99.90;;;;;;5011054;28;20555;-80